Time;durP1;ratioP1;P1;durP2;ratioP2;P2;SDS_P1;SDS_P2;PMS_P1;PMS_P2;Temp;Humidity;BMP_temperature;BMP_pressure;BME280_temperature;BME280_humidity;BME280_pressure;Samples;Min_cycle;Max_cycle;Signal;HPM_P1;HPM_P2
2022/02/04 00:24:10;;;;;;;0.60;0.60;;;;;;;3.24;100.00;100407.63;4976651;28;20060;-81
2022/02/04 00:26:48;;;;;;;0.40;0.40;;;;;;;3.17;100.00;100395.03;4973404;28;20042;-80
2022/02/04 00:29:34;;;;;;;0.45;0.45;;;;;;;3.17;100.00;100405.66;4997009;28;20033;-80
2022/02/04 00:32:05;;;;;;;0.50;0.50;;;;;;;3.15;100.00;100415.59;4985553;28;20399;-80
2022/02/04 00:34:38;;;;;;;0.40;0.40;;;;;;;3.05;100.00;100397.81;4991209;28;20029;-80
2022/02/04 00:37:21;;;;;;;0.55;0.55;;;;;;;3.01;100.00;100406.19;4969118;28;20030;-80
2022/02/04 00:39:56;;;;;;;;;;;;;;;3.01;100.00;100425.63;4975822;28;20453;-81
2022/02/04 00:42:22;;;;;;;0.40;0.40;;;;;;;2.90;100.00;100412.44;4991305;28;21023;-80
2022/02/04 00:44:49;;;;;;;4.57;0.88;;;;;;;2.72;100.00;100395.47;4967572;28;20068;-81
2022/02/04 00:47:19;;;;;;;0.40;0.40;;;;;;;2.89;100.00;100429.38;4959337;28;20512;-80
2022/02/04 00:50:07;;;;;;;0.50;0.50;;;;;;;2.79;100.00;100424.00;4978147;28;20030;-83
2022/02/04 00:52:48;;;;;;;0.50;0.50;;;;;;;2.59;100.00;100401.00;4986576;28;20040;-79
2022/02/04 00:55:31;;;;;;;0.45;0.45;;;;;;;2.65;100.00;100408.44;4963154;28;20046;-80
2022/02/04 01:27:52;;;;;;;0.50;0.50;;;;;;;2.63;100.00;100434.28;4955929;28;20397;-79
2022/02/04 01:30:20;;;;;;;0.40;0.40;;;;;;;2.69;100.00;100441.72;4970932;28;20049;-79
2022/02/04 01:32:46;;;;;;;0.50;0.50;;;;;;;2.72;100.00;100449.41;5006738;28;20430;-81
2022/02/04 01:35:12;;;;;;;0.40;0.40;;;;;;;2.75;100.00;100454.47;4973964;28;20046;-79
2022/02/04 01:37:38;;;;;;;0.50;0.50;;;;;;;2.67;100.00;100443.66;4986447;28;20033;-80
2022/02/04 01:40:04;;;;;;;0.50;0.50;;;;;;;2.76;100.00;100460.63;4962712;28;20029;-80
2022/02/04 01:42:30;;;;;;;0.50;0.50;;;;;;;2.71;100.00;100442.41;4959757;28;20436;-79
2022/02/04 01:44:55;;;;;;;0.70;0.70;;;;;;;2.62;100.00;100430.78;4961931;28;20030;-80
2022/02/04 01:47:21;;;;;;;0.50;0.50;;;;;;;2.70;100.00;100439.88;4992318;28;20038;-80
2022/02/04 01:49:47;;;;;;;0.50;0.50;;;;;;;2.40;100.00;100405.25;4992654;28;20131;-79
2022/02/04 01:52:12;;;;;;;0.50;0.50;;;;;;;2.38;100.00;100414.31;4995128;28;20058;-83
2022/02/04 01:54:38;;;;;;;0.50;0.50;;;;;;;2.30;100.00;100416.78;4960112;28;20490;-80
2022/02/04 01:57:04;;;;;;;0.50;0.50;;;;;;;2.31;100.00;100431.75;4991132;28;20034;-82
2022/02/04 01:59:30;;;;;;;0.50;0.50;;;;;;;2.06;100.00;100414.41;4975031;28;20070;-80
2022/02/04 02:01:56;;;;;;;0.40;0.40;;;;;;;2.01;100.00;100433.34;4974979;28;20037;-82
2022/02/04 02:04:21;;;;;;;0.40;0.40;;;;;;;1.87;100.00;100436.31;5006478;28;20057;-82
2022/02/04 02:06:52;;;;;;;0.50;0.50;;;;;;;1.73;100.00;100425.03;4977764;28;20133;-83
2022/02/04 02:09:20;;;;;;;0.50;0.50;;;;;;;1.73;100.00;100430.34;4958864;28;20044;-81
2022/02/04 02:11:51;;;;;;;0.50;0.50;;;;;;;1.72;100.00;100439.28;4993218;28;20476;-79
2022/02/04 02:14:19;;;;;;;0.50;0.50;;;;;;;1.60;100.00;100415.59;4993492;28;20084;-78
2022/02/04 02:33:36;;;;;;;0.50;0.50;;;;;;;0.42;100.00;100458.47;4994081;28;20033;-80
2022/02/04 02:59:18;;;;;;;0.50;0.50;;;;;;;0.50;100.00;100478.16;4982376;28;20044;-81
2022/02/04 03:01:48;;;;;;;0.50;0.50;;;;;;;0.28;100.00;100471.88;4976481;28;20108;-82
2022/02/04 03:04:16;;;;;;;0.50;0.50;;;;;;;0.12;100.00;100474.00;4972243;28;20061;-82
2022/02/04 03:06:43;;;;;;;0.50;0.50;;;;;;;-0.03;100.00;100473.34;4975278;28;20516;-80
2022/02/04 03:09:09;;;;;;;0.50;0.50;;;;;;;-0.23;100.00;100466.91;4957832;28;20041;-80
2022/02/04 03:11:35;;;;;;;0.50;0.50;;;;;;;-0.33;100.00;100465.91;4991423;28;20408;-81
2022/02/04 03:14:01;;;;;;;0.40;0.40;;;;;;;-0.25;100.00;100479.38;4988555;28;20499;-78
2022/02/04 03:16:27;;;;;;;0.50;0.50;;;;;;;-0.23;100.00;100472.19;4989065;28;20519;-82
2022/02/04 03:18:54;;;;;;;0.50;0.50;;;;;;;-0.30;100.00;100455.94;5008049;28;20033;-82
2022/02/04 03:21:35;;;;;;;0.40;0.40;;;;;;;-0.02;100.00;100483.81;5007385;28;20038;-81
2022/02/04 03:24:07;;;;;;;0.50;0.50;;;;;;;0.13;100.00;100473.03;4968721;28;20112;-83
2022/02/04 03:26:57;;;;;;;0.50;0.50;;;;;;;0.39;100.00;100493.06;4972577;28;20044;-83
2022/02/04 03:30:05;;;;;;;0.40;0.40;;;;;;;0.55;100.00;100500.66;4992649;28;20057;-81
2022/02/04 03:32:10;;;;;;;0.50;0.50;;;;;;;0.67;100.00;100490.13;4983668;28;20149;-80
2022/02/04 03:34:35;;;;;;;0.45;0.45;;;;;;;0.82;100.00;100500.34;4992452;28;20057;-80
2022/02/04 03:37:01;;;;;;;0.50;0.50;;;;;;;0.89;100.00;100503.34;4958194;28;20590;-83
2022/02/04 03:39:27;;;;;;;0.50;0.50;;;;;;;0.72;100.00;100480.84;4973910;28;20465;-81
2022/02/04 03:41:53;;;;;;;0.50;0.50;;;;;;;0.64;100.00;100483.25;5007672;28;20105;-80
2022/02/04 03:44:18;;;;;;;0.50;0.50;;;;;;;0.76;100.00;100499.97;4985203;28;20079;-83
2022/02/04 03:46:44;;;;;;;0.50;0.50;;;;;;;0.82;100.00;100515.38;4975532;28;20372;-81
2022/02/04 03:49:10;;;;;;;0.50;0.50;;;;;;;0.93;100.00;100519.81;4958137;28;20516;-81
2022/02/04 03:51:35;;;;;;;0.50;0.50;;;;;;;1.01;100.00;100517.44;4958616;28;20124;-82
2022/02/04 03:54:01;;;;;;;0.50;0.50;;;;;;;1.06;100.00;100518.75;5004602;28;20022;-84
2022/02/04 03:56:26;;;;;;;0.50;0.50;;;;;;;1.18;100.00;100529.34;4973141;28;20034;-83
2022/02/04 03:58:52;;;;;;;0.50;0.50;;;;;;;1.09;100.00;100504.44;4976166;28;20092;-81
2022/02/04 04:01:19;;;;;;;0.60;0.60;;;;;;;1.43;100.00;100517.63;4974201;28;20050;-79
2022/02/04 04:03:46;;;;;;;0.50;0.50;;;;;;;1.33;100.00;100506.13;4986675;28;20099;-83
2022/02/04 04:06:13;;;;;;;0.50;0.50;;;;;;;1.30;100.00;100508.03;4974707;28;20044;-84
2022/02/04 04:08:39;;;;;;;0.50;0.50;;;;;;;1.22;100.00;100502.50;4971693;28;20030;-81
2022/02/04 04:11:05;;;;;;;0.50;0.50;;;;;;;1.12;100.00;100517.44;4954537;28;20092;-83
2022/02/04 04:13:30;;;;;;;0.50;0.50;;;;;;;1.00;100.00;100503.34;4991864;28;20040;-83
2022/02/04 04:15:56;;;;;;;0.50;0.50;;;;;;;1.01;100.00;100528.03;4990621;28;20038;-80
2022/02/04 04:18:22;;;;;;;0.50;0.50;;;;;;;0.91;100.00;100525.25;4985619;28;20034;-81
2022/02/04 04:20:47;;;;;;;0.45;0.45;;;;;;;0.92;100.00;100503.09;4988643;28;20120;-79
2022/02/04 04:23:14;;;;;;;3.00;0.98;;;;;;;1.09;100.00;100520.34;4971111;28;20030;-81
2022/02/04 04:25:40;;;;;;;0.50;0.50;;;;;;;1.18;100.00;100529.34;4950960;28;20045;-83
2022/02/04 04:28:06;;;;;;;0.50;0.50;;;;;;;1.10;100.00;100519.34;4976381;28;20132;-80
2022/02/04 04:30:32;;;;;;;0.50;0.50;;;;;;;1.29;100.00;100534.63;4986178;28;20451;-81
2022/02/04 04:32:58;;;;;;;0.50;0.50;;;;;;;1.30;100.00;100533.69;4990917;28;20088;-82
2022/02/04 04:35:25;;;;;;;0.50;0.50;;;;;;;1.35;100.00;100536.81;4986763;28;20056;-83
2022/02/04 04:46:05;;;;;;;3.55;1.00;;;;;;;2.01;100.00;100597.75;4971937;28;20026;-80
2022/02/04 05:29:28;;;;;;;0.50;0.50;;;;;;;0.94;100.00;100554.13;4994451;28;20042;-80
2022/02/04 05:31:54;;;;;;;0.50;0.50;;;;;;;0.88;100.00;100558.09;4979080;28;20043;-80
2022/02/04 05:34:21;;;;;;;0.50;0.50;;;;;;;0.91;100.00;100566.78;4959534;28;20120;-79
2022/02/04 05:36:53;;;;;;;0.55;0.55;;;;;;;0.83;100.00;100556.78;4995411;28;20034;-82
2022/02/04 05:39:24;;;;;;;0.40;0.40;;;;;;;0.88;100.00;100566.03;4992514;28;20123;-80
2022/02/04 05:41:50;;;;;;;0.50;0.50;;;;;;;1.05;100.00;100590.38;4980434;28;20136;-79
2022/02/04 05:44:17;;;;;;;0.50;0.50;;;;;;;1.14;100.00;100594.97;4984638;28;20117;-81
2022/02/04 05:46:58;;;;;;;0.50;0.50;;;;;;;1.13;100.00;100590.59;5002891;28;20045;-79
2022/02/04 05:49:26;;;;;;;0.40;0.40;;;;;;;1.21;100.00;100606.75;4956699;28;20048;-79
2022/02/04 05:54:40;;;;;;;0.50;0.50;;;;;;;1.34;100.00;100622.53;4988393;28;20411;-80
2022/02/04 05:57:18;;;;;;;0.50;0.50;;;;;;;1.24;100.00;100619.75;4982617;28;20403;-79
2022/02/04 06:02:34;;;;;;;0.40;0.40;;;;;;;0.90;100.00;100603.00;4992581;28;20149;-82
2022/02/04 06:05:14;;;;;;;0.50;0.50;;;;;;;0.69;100.00;100592.25;4993331;28;20030;-81
2022/02/04 06:23:29;;;;;;;0.50;0.50;;;;;;;1.28;100.00;100647.69;4993889;28;20455;-80
2022/02/04 06:25:55;;;;;;;0.50;0.50;;;;;;;1.51;100.00;100631.81;4992753;28;20034;-81
2022/02/04 06:28:20;;;;;;;0.60;0.60;;;;;;;1.57;100.00;100636.63;4978587;28;20048;-79
2022/02/04 06:30:46;;;;;;;2.72;0.85;;;;;;;1.71;100.00;100643.47;4992029;28;20413;-81
2022/02/04 06:33:12;;;;;;;0.82;0.80;;;;;;;1.80;100.00;100640.13;4978355;28;20034;-78
2022/02/04 06:35:41;;;;;;;3.42;1.15;;;;;;;1.72;100.00;100630.13;4975317;28;20042;-80
2022/02/04 06:38:06;;;;;;;4.63;0.77;;;;;;;1.69;100.00;100640.09;5008448;28;20499;-81
2022/02/04 06:40:32;;;;;;;5.05;1.27;;;;;;;1.72;100.00;100655.75;4991360;28;20029;-83
2022/02/04 06:42:58;;;;;;;1.65;0.85;;;;;;;1.70;100.00;100637.34;5008988;28;20124;-82
2022/02/04 06:45:24;;;;;;;0.68;0.68;;;;;;;1.78;100.00;100643.84;4993946;28;20081;-80
2022/02/04 06:47:50;;;;;;;0.50;0.50;;;;;;;1.73;100.00;100631.78;4994040;28;20037;-84
2022/02/04 06:50:15;;;;;;;0.60;0.60;;;;;;;1.51;100.00;100616.75;4976411;28;20480;-81
2022/02/04 06:52:43;;;;;;;0.50;0.50;;;;;;;1.38;100.00;100629.28;4957806;28;20084;-82
2022/02/04 06:55:10;;;;;;;0.50;0.50;;;;;;;1.28;100.00;100641.56;4986611;28;20412;-80
2022/02/04 06:57:36;;;;;;;0.50;0.50;;;;;;;1.16;100.00;100648.63;4991059;28;20065;-79
2022/02/04 07:00:04;;;;;;;0.50;0.50;;;;;;;1.03;100.00;100656.69;4990877;28;20030;-82
2022/02/04 07:02:29;;;;;;;0.50;0.50;;;;;;;0.93;100.00;100662.78;4971162;28;20073;-79
2022/02/04 07:04:55;;;;;;;0.50;0.50;;;;;;;0.82;100.00;100660.94;4976115;28;20789;-80
2022/02/04 07:07:21;;;;;;;0.50;0.50;;;;;;;0.64;100.00;100648.16;4991161;28;20041;-81
2022/02/04 07:10:13;;;;;;;0.52;0.52;;;;;;;0.50;100.00;100655.41;4992317;28;20073;-80
2022/02/04 07:12:36;;;;;;;0.50;0.50;;;;;;;0.52;100.00;100664.91;4973924;28;20378;-80
2022/02/04 07:19:56;;;;;;;0.50;0.50;;;;;;;0.25;100.00;100646.66;4988625;28;20112;-81
2022/02/04 07:22:27;;;;;;;0.50;0.50;;;;;;;0.26;100.00;100653.59;4982538;28;20030;-80
2022/02/04 07:24:59;;;;;;;0.50;0.50;;;;;;;0.06;100.00;100635.72;4971969;28;20514;-82
2022/02/04 07:27:29;;;;;;;0.50;0.50;;;;;;;0.12;100.00;100656.41;4972866;28;20137;-81
2022/02/04 07:29:56;;;;;;;0.50;0.50;;;;;;;-0.11;100.00;100635.13;4972713;28;20041;-81
2022/02/04 07:42:57;;;;;;;0.50;0.50;;;;;;;0.84;100.00;100696.91;4977487;28;20034;-80
2022/02/04 07:45:22;;;;;;;1.65;0.60;;;;;;;1.04;100.00;100716.63;4988537;28;20034;-81
2022/02/04 07:47:49;;;;;;;0.60;0.60;;;;;;;1.18;100.00;100686.44;4992783;28;20455;-82
2022/02/04 07:50:18;;;;;;;1.33;0.90;;;;;;;1.25;100.00;100703.56;4974564;28;20400;-82
2022/02/04 07:52:43;;;;;;;0.50;0.50;;;;;;;1.24;100.00;100708.97;4988366;28;20065;-80
2022/02/04 07:55:09;;;;;;;0.50;0.50;;;;;;;1.24;100.00;100707.16;4956180;28;20057;-80
2022/02/04 07:57:35;;;;;;;2.15;2.05;;;;;;;1.25;100.00;100714.16;4990112;28;20034;-82
2022/02/04 08:00:03;;;;;;;0.50;0.50;;;;;;;1.11;100.00;100716.97;4975749;28;20040;-80
2022/02/04 08:02:29;;;;;;;0.50;0.50;;;;;;;1.03;100.00;100714.06;5006042;28;20480;-81
2022/02/04 08:05:00;;;;;;;0.50;0.50;;;;;;;0.99;100.00;100729.34;4986739;28;20025;-81
2022/02/04 08:07:30;;;;;;;0.45;0.45;;;;;;;1.11;100.00;100727.56;4965732;28;20684;-82
2022/02/04 08:10:08;;;;;;;0.50;0.50;;;;;;;1.17;100.00;100724.50;4972151;28;20468;-81
2022/02/04 08:36:11;;;;;;;0.50;0.50;;;;;;;1.85;100.00;100748.44;4986235;28;20032;-81
2022/02/04 08:38:57;;;;;;;0.40;0.40;;;;;;;1.96;100.00;100746.66;4974477;28;20361;-82
2022/02/04 08:54:46;;;;;;;0.50;0.50;;;;;;;2.14;100.00;100783.28;4994103;28;20112;-82
2022/02/04 08:59:53;;;;;;;0.57;0.57;;;;;;;3.15;100.00;100796.38;4991970;28;20129;-79
2022/02/04 09:02:32;;;;;;;0.50;0.50;;;;;;;3.35;100.00;100785.88;4976856;28;20037;-82
2022/02/04 09:05:04;;;;;;;0.50;0.50;;;;;;;3.12;100.00;100793.94;5003591;28;20133;-80
2022/02/04 09:07:37;;;;;;;0.50;0.50;;;;;;;2.91;100.00;100803.66;4993201;28;20042;-79
2022/02/04 09:10:11;;;;;;;0.50;0.50;;;;;;;2.76;100.00;100811.09;4993008;28;20034;-81
2022/02/04 09:23:08;;;;;;;0.50;0.50;;;;;;;2.45;100.00;100826.81;4991133;28;20084;-81
2022/02/04 09:25:39;;;;;;;0.60;0.60;;;;;;;2.42;100.00;100819.09;4976692;28;20041;-82
2022/02/04 09:28:05;;;;;;;0.50;0.50;;;;;;;2.23;100.00;100813.56;4976034;28;20106;-85
2022/02/04 09:30:31;;;;;;;0.40;0.40;;;;;;;2.19;100.00;100807.63;4960775;28;20480;-83
2022/02/04 09:32:57;;;;;;;0.50;0.50;;;;;;;2.32;100.00;100823.44;4963020;28;20029;-83
2022/02/04 09:35:23;;;;;;;0.50;0.50;;;;;;;2.36;100.00;100831.03;4976611;28;20088;-83
2022/02/04 09:37:53;;;;;;;0.50;0.50;;;;;;;2.32;100.00;100823.44;4961937;28;20031;-82
2022/02/04 09:40:22;;;;;;;0.40;0.40;;;;;;;2.49;100.00;100835.34;4995157;28;20034;-82
2022/02/04 09:42:48;;;;;;;0.50;0.50;;;;;;;2.73;100.00;100843.22;4991975;28;20032;-82
2022/02/04 09:45:20;;;;;;;0.50;0.50;;;;;;;3.05;100.00;100851.22;4978423;28;20046;-82
2022/02/04 09:47:47;;;;;;;0.50;0.50;;;;;;;3.40;100.00;100850.97;4979463;28;20045;-82
2022/02/04 09:50:22;;;;;;;0.50;0.50;;;;;;;3.97;100.00;100830.25;4978272;28;20503;-82
2022/02/04 10:16:15;;;;;;;0.60;0.60;;;;;;;3.12;100.00;100844.41;4995565;28;20119;-89
2022/02/04 10:18:51;;;;;;;0.90;0.90;;;;;;;6.44;100.00;100847.88;4978566;28;20030;-90
2022/02/04 10:21:16;;;;;;;0.80;0.80;;;;;;;8.86;92.39;100829.81;4980421;28;20050;-88
2022/02/04 10:23:51;;;;;;;0.80;0.80;;;;;;;10.04;86.31;100804.38;4995062;28;20037;-89
2022/02/04 10:26:18;;;;;;;0.88;0.88;;;;;;;11.23;82.86;100813.28;4995828;28;20084;-89
2022/02/04 10:28:46;;;;;;;0.80;0.80;;;;;;;12.01;79.00;100789.75;4996270;28;20036;-88
2022/02/04 10:31:21;;;;;;;0.80;0.80;;;;;;;12.48;76.35;100775.06;4995626;28;20033;-89
2022/02/04 10:34:23;;;;;;;0.90;0.90;;;;;;;13.04;74.17;100805.00;4978302;28;20038;-90
2022/02/04 10:54:46;;;;;;;0.43;0.43;;;;;;;4.04;100.00;100858.00;4964897;28;20046;-91
2022/02/04 10:59:08;;;;;;;0.40;0.40;;;;;;;3.44;100.00;100862.19;4980556;28;20546;-91
2022/02/04 11:02:10;;;;;;;0.50;0.50;;;;;;;3.73;100.00;100899.63;4982504;28;20125;-91
2022/02/04 11:04:44;;;;;;;1.13;1.08;;;;;;;4.01;100.00;100916.81;4997988;28;20037;-90
2022/02/04 11:10:21;;;;;;;0.50;0.50;;;;;;;4.09;100.00;100882.41;4995569;28;20046;-90
2022/02/04 11:35:11;;;;;;;0.75;0.75;;;;;;;10.88;84.97;100917.75;4979330;28;20084;-90
2022/02/04 11:55:00;;;;;;;0.70;0.70;;;;;;;6.63;100.00;100886.19;5013072;28;20419;-88
2022/02/04 11:57:36;;;;;;;0.50;0.50;;;;;;;6.73;100.00;100906.53;4997284;28;20029;-87
2022/02/04 12:00:20;;;;;;;0.55;0.55;;;;;;;6.99;100.00;100885.31;4978253;28;20117;-88
2022/02/04 12:02:46;;;;;;;0.52;0.52;;;;;;;7.72;97.52;100887.03;4994049;28;20089;-88
2022/02/04 12:05:21;;;;;;;0.60;0.60;;;;;;;7.52;99.56;100885.53;4977728;28;20037;-87
2022/02/04 12:07:50;;;;;;;0.50;0.50;;;;;;;7.88;98.74;100895.19;4993399;28;20080;-87
2022/02/04 12:10:15;;;;;;;0.60;0.60;;;;;;;7.90;100.00;100906.59;4977753;28;20048;-86
2022/02/04 12:12:59;;;;;;;0.57;0.57;;;;;;;7.63;100.00;100914.72;4994192;28;20039;-87
2022/02/04 12:15:45;;;;;;;;;;;;;;;6.96;100.00;100928.38;4978246;28;20034;-87
2022/02/04 12:18:14;;;;;;;0.50;0.50;;;;;;;6.44;100.00;100920.00;4966727;28;20003;-88
2022/02/04 12:20:50;;;;;;;0.50;0.50;;;;;;;6.02;100.00;100933.72;4999658;28;20038;-87
2022/02/04 12:23:28;;;;;;;0.40;0.40;;;;;;;5.60;100.00;100938.44;5011771;28;20080;-88
2022/02/04 12:26:03;;;;;;;0.77;0.60;;;;;;;5.14;100.00;100943.44;4994388;28;20040;-89
2022/02/04 12:29:05;;;;;;;0.50;0.50;;;;;;;4.81;100.00;100960.53;4977866;28;20042;-89
2022/02/04 12:31:42;;;;;;;0.50;0.50;;;;;;;4.98;100.00;100948.44;4993993;28;20120;-92
2022/02/04 12:34:14;;;;;;;0.75;0.63;;;;;;;5.23;100.00;100953.25;4972670;28;20673;-89
2022/02/04 12:36:43;;;;;;;0.60;0.60;;;;;;;5.40;100.00;100943.78;4994174;28;20037;-88
2022/02/04 12:39:15;;;;;;;0.60;0.60;;;;;;;5.83;100.00;100926.53;4962007;28;20037;-88
2022/02/04 12:42:15;;;;;;;0.50;0.50;;;;;;;5.98;100.00;100921.66;4977864;28;20472;-89
2022/02/04 12:44:44;;;;;;;0.50;0.50;;;;;;;5.86;100.00;100928.06;4938192;28;20133;-87
2022/02/04 12:47:25;;;;;;;0.60;0.60;;;;;;;8.98;94.90;100909.81;4988619;28;20041;-87
2022/02/04 12:50:01;;;;;;;3.70;1.02;;;;;;;11.38;82.33;100921.06;4962034;28;20560;-88
2022/02/04 12:52:41;;;;;;;0.80;0.80;;;;;;;11.89;78.99;100918.72;4978326;28;20037;-90
2022/02/04 12:55:13;;;;;;;0.80;0.80;;;;;;;11.30;80.29;100930.00;4979016;28;20554;-88
2022/02/04 12:57:44;;;;;;;0.80;0.80;;;;;;;12.99;75.27;100926.19;4993628;28;20041;-88
2022/02/04 13:11:09;;;;;;;2.03;0.95;;;;;;;16.10;62.86;100914.22;4994399;28;20104;-89
2022/02/04 13:13:47;;;;;;;1.02;1.00;;;;;;;16.36;62.93;100913.38;4977756;28;20034;-89
2022/02/04 13:16:35;;;;;;;2.45;1.10;;;;;;;16.65;61.53;100910.19;4979891;28;20416;-88
2022/02/04 13:19:07;;;;;;;0.98;0.98;;;;;;;16.90;61.78;100909.53;4974866;28;20624;-90
2022/02/04 13:21:36;;;;;;;0.90;0.90;;;;;;;17.01;61.56;100929.75;4974988;28;20089;-87
2022/02/04 13:24:03;;;;;;;0.90;0.90;;;;;;;17.08;60.93;100912.38;4973687;28;20037;-89
2022/02/04 13:26:32;;;;;;;3.30;1.30;;;;;;;17.40;61.01;100945.06;4978171;28;20111;-90
2022/02/04 13:28:59;;;;;;;0.90;0.90;;;;;;;17.89;60.96;100948.16;4990310;28;20125;-88
2022/02/04 13:31:26;;;;;;;0.45;0.45;;;;;;;16.32;64.94;100936.53;4977722;28;20112;-87
2022/02/04 13:33:53;;;;;;;4.13;0.93;;;;;;;14.25;72.70;100911.34;4993893;28;20029;-88
2022/02/04 13:36:37;;;;;;;0.90;0.90;;;;;;;14.82;72.37;100933.81;4965378;28;20487;-87
2022/02/04 13:39:25;;;;;;;0.95;0.95;;;;;;;13.51;75.70;100925.19;4962722;28;20092;-87
2022/02/04 13:45:08;;;;;;;1.35;0.77;;;;;;;11.48;85.92;100947.75;4982224;28;20045;-89
2022/02/04 13:47:52;;;;;;;3.30;1.10;;;;;;;15.51;72.14;100926.63;5001727;28;20030;-88
2022/02/04 13:55:32;;;;;;;2.50;1.40;;;;;;;16.45;65.10;100937.34;4989431;28;20030;-87
2022/02/04 13:58:14;;;;;;;4.55;1.30;;;;;;;17.09;64.13;100918.66;4988823;28;20050;-88
2022/02/04 14:01:06;;;;;;;3.13;1.47;;;;;;;18.26;62.63;100943.72;4981874;28;20046;-89
2022/02/04 14:03:35;;;;;;;1.63;1.30;;;;;;;18.65;60.15;100933.50;4983789;28;20037;-90
2022/02/04 14:06:15;;;;;;;6.15;2.45;;;;;;;18.17;58.93;100936.88;4964627;28;20065;-90
2022/02/04 14:11:29;;;;;;;3.40;1.48;;;;;;;17.56;61.60;100950.00;4980543;28;20041;-87
2022/02/04 14:13:59;;;;;;;5.25;1.35;;;;;;;17.48;61.14;100933.94;4980363;28;20053;-88
2022/02/04 14:16:25;;;;;;;7.93;1.42;;;;;;;17.36;59.48;100911.25;4979772;28;20061;-89
2022/02/04 14:18:50;;;;;;;6.32;1.60;;;;;;;17.31;57.46;100946.38;4994939;28;20030;-88
2022/02/04 14:21:22;;;;;;;7.85;1.55;;;;;;;17.32;57.78;100943.44;4996273;28;20022;-87
2022/02/04 14:23:57;;;;;;;6.05;1.77;;;;;;;17.57;60.02;100950.84;4996651;28;20048;-87
2022/02/04 14:26:32;;;;;;;6.05;2.20;;;;;;;17.83;54.63;100949.88;4980629;28;20038;-88
2022/02/04 14:31:45;;;;;;;4.72;1.58;;;;;;;15.96;57.55;100949.47;4985298;28;20503;-81
2022/02/04 14:53:37;;;;;;;4.10;1.33;;;;;;;14.72;59.40;100987.47;4992786;28;20030;-80
2022/02/04 15:01:34;;;;;;;3.60;1.27;;;;;;;14.55;59.50;100986.91;5005515;28;20041;-82
2022/02/04 15:04:10;;;;;;;7.90;1.60;;;;;;;14.32;58.56;100994.41;4976501;28;20125;-83
2022/02/04 15:06:39;;;;;;;3.22;1.30;;;;;;;14.20;59.97;100994.09;4994818;28;20403;-79
2022/02/04 15:09:09;;;;;;;2.33;1.13;;;;;;;13.53;64.38;100995.25;4964035;28;20034;-81
2022/02/04 15:11:39;;;;;;;7.77;1.97;;;;;;;13.59;63.04;101006.13;4993071;28;20042;-80
2022/02/04 15:14:11;;;;;;;4.65;1.30;;;;;;;12.95;61.17;101001.31;4991824;28;20287;-82
2022/02/04 15:16:37;;;;;;;4.90;1.27;;;;;;;12.72;64.30;101009.47;4992766;28;20030;-81
2022/02/04 15:19:12;;;;;;;5.68;1.85;;;;;;;12.12;58.89;100996.00;4994117;28;20112;-80
2022/02/04 15:21:41;;;;;;;5.78;1.48;;;;;;;11.82;58.24;101020.94;4961108;28;20484;-81
2022/02/04 15:24:10;;;;;;;4.78;1.30;;;;;;;11.62;60.11;101022.41;4992400;28;20133;-81
2022/02/04 15:26:39;;;;;;;7.35;1.10;;;;;;;12.55;56.96;101013.34;4976628;28;20034;-81
2022/02/04 15:29:11;;;;;;;3.67;1.38;;;;;;;12.72;52.35;101027.50;4991761;28;20034;-80
2022/02/04 15:31:47;;;;;;;4.10;0.93;;;;;;;12.62;54.60;101040.41;4992957;28;20037;-82
2022/02/04 15:34:15;;;;;;;4.10;1.63;;;;;;;10.91;59.95;101046.53;4978948;28;20087;-78
2022/02/04 15:36:48;;;;;;;4.25;1.00;;;;;;;9.69;63.90;101042.72;4989970;28;20053;-79
2022/02/04 15:39:29;;;;;;;3.95;1.33;;;;;;;9.05;67.00;101040.56;4977066;28;20369;-80
2022/02/04 15:42:07;;;;;;;6.20;1.40;;;;;;;8.45;69.88;101058.28;4979423;28;20034;-80
2022/02/04 15:44:40;;;;;;;3.92;0.80;;;;;;;7.86;71.61;101057.00;4978105;28;20152;-82
2022/02/04 15:47:30;;;;;;;5.65;1.17;;;;;;;7.52;72.69;101083.53;4975226;28;20074;-77
2022/02/04 15:50:57;;;;;;;3.80;0.98;;;;;;;7.07;74.51;101081.59;5003900;28;20038;-79
2022/02/04 15:53:20;;;;;;;3.13;1.05;;;;;;;6.76;76.80;101093.31;4993412;28;20117;-82
2022/02/04 16:01:26;;;;;;;3.00;1.48;;;;;;;6.08;79.76;101087.97;4979089;28;20136;-81
2022/02/04 16:06:22;;;;;;;4.10;1.10;;;;;;;5.73;82.89;101094.59;4974518;28;20042;-78
2022/02/04 16:08:54;;;;;;;4.63;1.38;;;;;;;5.59;84.40;101112.84;4975339;28;20065;-77
2022/02/04 16:14:09;;;;;;;5.90;1.42;;;;;;;5.43;87.10;101129.34;4978298;28;20077;-79
2022/02/04 16:16:47;;;;;;;4.47;1.73;;;;;;;5.54;85.50;101109.72;4994133;28;20060;-80
2022/02/04 16:29:20;;;;;;;4.97;1.52;;;;;;;5.08;86.83;101138.56;4990793;28;20034;-80
2022/02/04 16:31:47;;;;;;;4.53;1.23;;;;;;;5.04;85.85;101148.59;4988565;28;20052;-81
2022/02/04 16:34:19;;;;;;;4.50;1.52;;;;;;;4.88;86.71;101158.88;4992937;28;20033;-79
2022/02/04 16:36:49;;;;;;;6.80;2.47;;;;;;;4.92;84.62;101157.66;4977475;28;20116;-81
2022/02/04 16:39:20;;;;;;;3.58;1.25;;;;;;;4.77;86.36;101151.78;4976304;28;20037;-78
2022/02/04 16:41:53;;;;;;;6.93;1.15;;;;;;;4.78;86.48;101160.63;4989201;28;20034;-82
2022/02/04 16:44:20;;;;;;;6.43;1.52;;;;;;;4.62;86.39;101167.22;4996581;28;20037;-78
2022/02/04 16:46:48;;;;;;;4.90;1.50;;;;;;;4.53;87.11;101180.47;4962229;28;20661;-83
2022/02/04 16:49:17;;;;;;;3.03;1.10;;;;;;;4.44;86.44;101178.56;4958793;28;20033;-81
2022/02/04 16:51:42;;;;;;;3.35;1.58;;;;;;;4.38;86.33;101187.88;4990490;28;20034;-77
2022/02/04 16:54:10;;;;;;;4.78;1.58;;;;;;;4.32;85.97;101191.91;4991497;28;20464;-82
2022/02/04 16:56:37;;;;;;;4.50;1.17;;;;;;;4.24;86.36;101206.81;4956044;28;20070;-79
2022/02/04 16:59:04;;;;;;;2.97;1.08;;;;;;;4.22;86.65;101206.91;4955268;28;20080;-78
2022/02/04 17:01:30;;;;;;;5.45;1.20;;;;;;;4.06;87.29;101211.78;4961781;28;20042;-78
2022/02/04 17:03:57;;;;;;;9.05;1.90;;;;;;;3.81;88.85;101203.09;4987531;28;20065;-79
2022/02/04 17:06:26;;;;;;;2.05;1.25;;;;;;;3.70;89.65;101205.72;5009896;28;20030;-76
2022/02/04 17:08:59;;;;;;;4.43;1.80;;;;;;;3.67;89.99;101221.94;4992963;28;20042;-81
2022/02/04 17:11:26;;;;;;;7.00;1.63;;;;;;;3.55;90.69;101223.75;4979716;28;20041;-77
2022/02/04 17:13:52;;;;;;;5.35;1.40;;;;;;;3.45;90.59;101223.59;4979331;28;20041;-78
2022/02/04 17:16:18;;;;;;;6.43;1.80;;;;;;;3.29;91.54;101228.41;4980705;28;20096;-79
2022/02/04 17:18:45;;;;;;;3.78;1.20;;;;;;;3.21;91.69;101226.34;4979345;28;20396;-80
2022/02/04 17:21:12;;;;;;;3.72;1.23;;;;;;;3.02;92.34;101207.44;4964074;28;20038;-80
2022/02/04 17:23:43;;;;;;;8.48;1.52;;;;;;;3.04;92.58;101224.09;4995485;28;20062;-82
2022/02/04 17:26:09;;;;;;;2.38;0.93;;;;;;;2.92;93.46;101239.16;4996883;28;20403;-82
2022/02/04 17:28:37;;;;;;;3.00;1.02;;;;;;;2.79;93.61;101243.69;4977842;28;20469;-81
2022/02/04 17:31:03;;;;;;;3.80;1.05;;;;;;;2.69;95.13;101251.47;4993382;28;20030;-79
2022/02/04 17:33:29;;;;;;;9.38;4.78;;;;;;;2.60;95.18;101253.00;4995316;28;20497;-78
2022/02/04 17:35:58;;;;;;;6.65;1.85;;;;;;;2.49;95.71;101258.25;5013797;28;20033;-80
2022/02/04 17:38:26;;;;;;;10.68;1.95;;;;;;;2.43;96.38;101253.38;4962839;28;20037;-79
2022/02/04 17:40:54;;;;;;;8.63;2.75;;;;;;;2.40;96.86;101258.91;4996250;28;20476;-79
2022/02/04 17:43:21;;;;;;;8.40;1.80;;;;;;;2.28;97.39;101262.47;4992982;28;20030;-79
2022/02/04 17:45:47;;;;;;;14.27;3.33;;;;;;;2.15;97.89;101258.03;4964157;28;20033;-79
2022/02/04 17:48:23;;;;;;;18.88;5.97;;;;;;;1.94;98.70;101248.94;4974250;28;20048;-81
2022/02/04 17:51:05;;;;;;;30.08;16.38;;;;;;;1.90;99.67;101266.00;4991759;28;20038;-81
2022/02/04 17:53:45;;;;;;;11.02;4.38;;;;;;;1.84;100.00;101272.59;4971898;28;20038;-79
2022/02/04 17:56:27;;;;;;;9.07;4.72;;;;;;;1.73;100.00;101268.03;4997366;28;20492;-78
2022/02/04 18:07:08;;;;;;;5.80;1.92;;;;;;;1.94;100.00;101280.75;4979555;28;20472;-82
2022/02/04 18:09:38;;;;;;;16.27;8.07;;;;;;;1.92;100.00;101262.28;4958294;28;20034;-81
2022/02/04 18:12:05;;;;;;;15.57;5.35;;;;;;;2.20;100.00;101285.06;4976197;28;20033;-78
2022/02/04 18:14:33;;;;;;;32.38;21.15;;;;;;;2.24;100.00;101282.19;4961428;28;20103;-80
2022/02/04 18:16:59;;;;;;;33.10;16.50;;;;;;;2.10;100.00;101276.06;5006780;28;20037;-79